Time;durP1;ratioP1;P1;durP2;ratioP2;P2;SDS_P1;SDS_P2;PMS_P1;PMS_P2;Temp;Humidity;BMP_temperature;BMP_pressure;BME280_temperature;BME280_humidity;BME280_pressure;Samples;Min_cycle;Max_cycle;Signal;HPM_P1;HPM_P2
2021/05/15 00:02:23;;;;;;;3.42;2.25;;;9.80;99.90;;;;;;5035614;28;20425;-66
2021/05/15 00:04:49;;;;;;;4.83;3.07;;;9.80;99.90;;;;;;5035329;28;20197;-64
2021/05/15 00:07:16;;;;;;;3.53;2.53;;;9.60;99.90;;;;;;5036244;28;20900;-64
2021/05/15 00:09:45;;;;;;;6.15;3.08;;;9.60;99.90;;;;;;5036157;28;20427;-64
2021/05/15 00:12:11;;;;;;;3.50;2.93;;;9.50;99.90;;;;;;5034238;28;20350;-63
2021/05/15 00:14:38;;;;;;;2.97;2.67;;;9.70;99.90;;;;;;5034795;28;20391;-62
2021/05/15 00:17:04;;;;;;;8.30;4.77;;;9.80;99.90;;;;;;5035248;28;20424;-67
2021/05/15 00:19:32;;;;;;;3.20;2.10;;;9.90;99.90;;;;;;5035831;28;20455;-63
2021/05/15 00:21:59;;;;;;;3.47;2.40;;;9.90;99.90;;;;;;5035160;28;20562;-66
2021/05/15 00:24:25;;;;;;;4.87;2.60;;;10.00;99.90;;;;;;5036917;28;20477;-64
2021/05/15 00:26:51;;;;;;;6.53;3.00;;;10.10;99.90;;;;;;5037423;28;20482;-64
2021/05/15 00:29:18;;;;;;;6.90;3.17;;;10.10;99.90;;;;;;5036242;28;20476;-64
2021/05/15 00:31:44;;;;;;;3.40;2.17;;;10.00;99.90;;;;;;5036845;28;20431;-66
2021/05/15 00:34:11;;;;;;;6.27;3.20;;;9.90;99.90;;;;;;5035161;28;20926;-66
2021/05/15 00:36:38;;;;;;;4.20;3.60;;;9.70;99.90;;;;;;5035890;28;20530;-65
2021/05/15 00:39:06;;;;;;;6.80;5.40;;;9.50;99.90;;;;;;5036514;28;21114;-64
2021/05/15 00:41:33;;;;;;;5.10;3.58;;;9.30;99.90;;;;;;5035549;28;20565;-68
2021/05/15 00:44:13;;;;;;;7.87;4.47;;;9.20;99.90;;;;;;5035640;28;20598;-67
2021/05/15 00:46:40;;;;;;;7.57;4.13;;;9.00;99.90;;;;;;5034611;28;20813;-64
2021/05/15 00:49:07;;;;;;;6.18;2.95;;;8.90;99.90;;;;;;5033842;28;20209;-65
2021/05/15 00:51:33;;;;;;;7.07;4.68;;;8.80;99.90;;;;;;5034817;28;20174;-67
2021/05/15 00:54:01;;;;;;;9.57;4.03;;;8.80;99.90;;;;;;5034799;28;20209;-65
2021/05/15 00:56:28;;;;;;;4.93;3.65;;;8.80;99.90;;;;;;5034739;28;20200;-64
2021/05/15 00:58:55;;;;;;;6.18;4.85;;;8.70;99.90;;;;;;5032342;28;20434;-64
2021/05/15 01:01:22;;;;;;;3.58;3.28;;;8.60;99.90;;;;;;5030497;28;20196;-64
2021/05/15 01:03:48;;;;;;;6.45;3.83;;;8.60;99.90;;;;;;5030502;28;20308;-63
2021/05/15 01:06:15;;;;;;;7.63;4.45;;;8.50;99.90;;;;;;5030243;28;20208;-64
2021/05/15 01:08:45;;;;;;;4.53;2.90;;;8.50;99.90;;;;;;5030271;28;20556;-67
2021/05/15 01:11:13;;;;;;;5.13;3.33;;;8.50;99.90;;;;;;5029829;28;20216;-66
2021/05/15 01:13:40;;;;;;;5.10;3.63;;;8.40;99.90;;;;;;5030016;28;20209;-63
2021/05/15 01:16:07;;;;;;;4.78;3.70;;;8.40;99.90;;;;;;5028949;28;20351;-62
2021/05/15 01:18:33;;;;;;;6.63;4.28;;;8.30;99.90;;;;;;5028717;28;20580;-69
2021/05/15 01:21:01;;;;;;;4.82;4.00;;;8.30;99.90;;;;;;5029939;28;20666;-64
2021/05/15 01:23:28;;;;;;;5.70;3.17;;;8.20;99.90;;;;;;5030279;28;20748;-66
2021/05/15 01:25:55;;;;;;;4.78;4.13;;;8.10;99.90;;;;;;5030015;28;20527;-63
2021/05/15 01:28:22;;;;;;;5.78;3.67;;;8.20;99.90;;;;;;5030034;28;20194;-63
2021/05/15 01:30:49;;;;;;;4.97;3.22;;;8.20;99.90;;;;;;5029911;28;20288;-62
2021/05/15 01:33:15;;;;;;;5.18;3.58;;;8.10;99.90;;;;;;5029986;28;20217;-62
2021/05/15 01:35:42;;;;;;;5.28;3.10;;;8.10;99.90;;;;;;5028535;28;20193;-68
2021/05/15 01:38:09;;;;;;;3.53;2.88;;;8.10;99.90;;;;;;5029928;28;20650;-65
2021/05/15 01:40:35;;;;;;;2.95;2.65;;;8.10;99.90;;;;;;5029920;28;20231;-63
2021/05/15 01:43:02;;;;;;;4.50;3.45;;;8.10;99.90;;;;;;5028273;28;20615;-65
2021/05/15 01:45:28;;;;;;;4.82;3.35;;;8.10;99.90;;;;;;5029929;28;20272;-63
2021/05/15 01:47:55;;;;;;;6.30;3.30;;;8.00;99.90;;;;;;5030019;28;20184;-63
2021/05/15 01:50:21;;;;;;;3.33;2.90;;;8.00;99.90;;;;;;5029935;28;20293;-62
2021/05/15 01:52:47;;;;;;;4.75;4.18;;;8.00;99.90;;;;;;5030257;28;20265;-63
2021/05/15 01:55:21;;;;;;;5.40;3.85;;;8.00;99.90;;;;;;5029646;28;20178;-63
2021/05/15 01:57:49;;;;;;;5.85;3.88;;;8.00;99.90;;;;;;5030365;28;20649;-59
2021/05/15 02:00:16;;;;;;;4.85;3.55;;;8.00;99.90;;;;;;5033371;28;20177;-65
2021/05/15 02:02:43;;;;;;;3.25;2.95;;;7.90;99.90;;;;;;5033546;28;20216;-64
2021/05/15 02:05:10;;;;;;;7.53;4.57;;;7.80;99.90;;;;;;5033318;28;20223;-63
2021/05/15 02:07:37;;;;;;;3.58;3.10;;;7.80;99.90;;;;;;5033457;28;20217;-65
2021/05/15 02:10:04;;;;;;;4.60;2.95;;;7.80;99.90;;;;;;5032464;28;20212;-63
2021/05/15 02:12:31;;;;;;;3.55;2.80;;;7.80;99.90;;;;;;5033632;28;20202;-67
2021/05/15 02:14:58;;;;;;;4.65;2.95;;;8.00;99.90;;;;;;5033689;28;20270;-62
2021/05/15 02:17:24;;;;;;;4.60;3.60;;;8.00;99.90;;;;;;5033418;28;20182;-64
2021/05/15 02:19:51;;;;;;;4.85;3.28;;;8.00;99.90;;;;;;5033382;28;20712;-66
2021/05/15 02:22:17;;;;;;;5.38;3.83;;;7.90;99.90;;;;;;5059140;22;20213;-82
2021/05/15 02:24:44;;;;;;;7.68;3.78;;;7.90;99.90;;;;;;5050024;28;20181;-83
2021/05/15 02:27:10;;;;;;;4.63;3.70;;;7.90;99.90;;;;;;5050578;28;20185;-84
2021/05/15 02:29:37;;;;;;;4.47;3.33;;;7.80;99.90;;;;;;5050489;28;20197;-82
2021/05/15 02:32:04;;;;;;;4.90;3.58;;;7.80;99.90;;;;;;5052643;28;20169;-83
2021/05/15 02:34:31;;;;;;;6.10;3.67;;;7.80;99.90;;;;;;5052330;28;20197;-82
2021/05/15 02:36:57;;;;;;;5.00;3.33;;;7.70;99.90;;;;;;5051763;28;20177;-83
2021/05/15 02:39:25;;;;;;;5.53;3.67;;;7.70;99.90;;;;;;5044627;28;20170;-83
2021/05/15 02:41:51;;;;;;;5.05;4.43;;;7.60;99.90;;;;;;5045226;28;20215;-81
2021/05/15 02:44:18;;;;;;;4.53;4.07;;;7.60;99.90;;;;;;5044143;28;20201;-82
2021/05/15 02:46:45;;;;;;;3.78;2.80;;;7.60;99.90;;;;;;5046522;28;20193;-83
2021/05/15 02:49:11;;;;;;;6.70;3.90;;;7.70;99.90;;;;;;5049941;28;20190;-83
2021/05/15 02:51:38;;;;;;;7.68;3.33;;;7.70;99.90;;;;;;5044500;28;20182;-84
2021/05/15 02:54:05;;;;;;;3.88;2.90;;;7.60;99.90;;;;;;5042791;28;20217;-82
2021/05/15 02:56:31;;;;;;;6.00;3.53;;;7.60;99.90;;;;;;5043175;28;20192;-83
2021/05/15 02:58:58;;;;;;;3.35;3.03;;;7.70;99.90;;;;;;5043326;28;20170;-83
2021/05/15 03:01:24;;;;;;;6.25;4.18;;;7.70;99.90;;;;;;5043200;28;20185;-83
2021/05/15 03:03:51;;;;;;;6.93;4.78;;;7.70;99.90;;;;;;5043923;28;20213;-83
2021/05/15 03:06:18;;;;;;;5.25;4.75;;;7.70;99.90;;;;;;5044205;28;20726;-83
2021/05/15 03:08:45;;;;;;;22.05;11.48;;;7.60;99.90;;;;;;5043930;28;20170;-83
2021/05/15 03:11:11;;;;;;;7.28;5.57;;;7.60;99.90;;;;;;5043354;28;20536;-84
2021/05/15 03:13:39;;;;;;;9.13;5.30;;;7.70;99.90;;;;;;5045037;28;20215;-83
2021/05/15 03:16:05;;;;;;;7.22;4.20;;;7.70;99.90;;;;;;5047672;28;20173;-84
2021/05/15 03:18:32;;;;;;;7.18;4.97;;;7.70;99.90;;;;;;5050904;28;20189;-83
2021/05/15 03:20:59;;;;;;;5.57;4.30;;;7.70;99.90;;;;;;5054683;28;20173;-83
2021/05/15 03:23:26;;;;;;;4.50;3.80;;;7.80;99.90;;;;;;5040268;28;20221;-84
2021/05/15 03:25:53;;;;;;;5.85;5.20;;;7.80;99.90;;;;;;5041269;28;20672;-83
2021/05/15 03:28:19;;;;;;;6.82;5.18;;;7.80;99.90;;;;;;5038309;28;20232;-83
2021/05/15 03:30:46;;;;;;;5.15;3.85;;;7.90;99.90;;;;;;5041375;28;20675;-83
2021/05/15 03:33:12;;;;;;;6.30;4.50;;;8.10;99.90;;;;;;5044763;28;20213;-84
2021/05/15 03:35:39;;;;;;;5.30;3.85;;;8.30;99.90;;;;;;5042005;28;20236;-83
2021/05/15 03:38:06;;;;;;;5.43;4.20;;;8.60;99.90;;;;;;5042572;28;20554;-83
2021/05/15 03:40:32;;;;;;;6.25;5.50;;;8.90;99.90;;;;;;5043895;28;20193;-84
2021/05/15 03:42:59;;;;;;;6.20;4.32;;;9.10;99.90;;;;;;5043312;28;20580;-84
2021/05/15 03:45:26;;;;;;;5.25;4.00;;;9.40;99.90;;;;;;5042861;28;20189;-83
2021/05/15 03:47:52;;;;;;;6.43;4.28;;;9.70;99.90;;;;;;5041771;28;20182;-83
2021/05/15 03:50:20;;;;;;;5.97;4.35;;;10.10;99.90;;;;;;5043332;28;20209;-83
2021/05/15 03:52:46;;;;;;;6.70;4.32;;;10.60;99.90;;;;;;5047769;28;20205;-82
2021/05/15 03:55:14;;;;;;;7.50;5.37;;;11.00;99.90;;;;;;5049806;28;20177;-81
2021/05/15 03:57:41;;;;;;;5.60;3.07;;;11.40;99.90;;;;;;5057475;28;20454;-80
2021/05/15 04:00:09;;;;;;;5.47;4.00;;;11.70;99.90;;;;;;5057621;28;20443;-82
2021/05/15 04:02:36;;;;;;;4.90;3.30;;;12.20;99.90;;;;;;5057684;28;20468;-80
2021/05/15 04:05:02;;;;;;;4.03;3.37;;;12.40;99.90;;;;;;5058409;28;20443;-81
2021/05/15 04:07:29;;;;;;;5.43;4.10;;;12.70;99.90;;;;;;5058317;28;20760;-82
2021/05/15 04:09:55;;;;;;;3.33;3.03;;;13.00;99.90;;;;;;5057776;28;20467;-81
2021/05/15 04:12:24;;;;;;;4.40;3.97;;;13.40;99.90;;;;;;5057590;28;20444;-81
2021/05/15 04:15:01;;;;;;;4.20;3.33;;;13.80;99.90;;;;;;5057227;28;20425;-82
2021/05/15 04:17:29;;;;;;;4.73;3.63;;;14.10;99.90;;;;;;5041802;28;20443;-84
2021/05/15 04:19:56;;;;;;;5.70;3.70;;;13.80;99.90;;;;;;5041773;28;20403;-84
2021/05/15 04:22:22;;;;;;;5.63;3.53;;;13.90;99.90;;;;;;5041357;28;20490;-83
2021/05/15 04:24:49;;;;;;;5.67;3.67;;;13.90;99.90;;;;;;5041039;28;20398;-83
2021/05/15 04:27:16;;;;;;;6.23;4.20;;;13.90;99.90;;;;;;5040821;28;20478;-84
2021/05/15 04:29:43;;;;;;;5.50;3.70;;;13.60;99.90;;;;;;5042027;28;20517;-84
2021/05/15 04:32:10;;;;;;;6.57;4.47;;;13.70;99.90;;;;;;5042295;28;20422;-84
2021/05/15 04:34:36;;;;;;;4.77;4.13;;;13.60;99.90;;;;;;5042808;28;20445;-83
2021/05/15 04:37:03;;;;;;;4.47;4.07;;;13.90;99.90;;;;;;5041288;28;20398;-84
2021/05/15 04:39:33;;;;;;;8.33;4.13;;;14.40;99.90;;;;;;5042631;28;20387;-84
2021/05/15 04:42:00;;;;;;;5.17;3.97;;;14.40;99.90;;;;;;5042899;28;20399;-84
2021/05/15 04:44:26;;;;;;;5.13;3.70;;;13.90;99.90;;;;;;5044418;28;20457;-83
2021/05/15 04:46:53;;;;;;;5.83;4.00;;;13.30;99.90;;;;;;5047739;28;20395;-83
2021/05/15 04:49:21;;;;;;;4.40;4.00;;;12.70;99.90;;;;;;5048211;28;20430;-83
2021/05/15 04:51:47;;;;;;;6.83;3.60;;;12.50;99.90;;;;;;5048620;28;20443;-83
2021/05/15 04:54:14;;;;;;;7.10;4.40;;;13.50;99.90;;;;;;5045327;28;20509;-84
2021/05/15 04:56:41;;;;;;;3.37;2.43;;;15.20;99.90;;;;;;5041840;28;20456;-84
2021/05/15 04:59:07;;;;;;;3.70;3.20;;;16.50;99.90;;;;;;5042642;28;20466;-84
2021/05/15 05:01:34;;;;;;;4.77;3.53;;;17.10;99.90;;;;;;5042626;28;20430;-84
2021/05/15 05:04:03;;;;;;;4.70;2.70;;;17.90;99.90;;;;;;5042719;28;20437;-84
2021/05/15 05:06:30;;;;;;;3.07;2.30;;;18.50;99.90;;;;;;5042570;28;20403;-83
2021/05/15 05:08:57;;;;;;;3.00;2.20;;;17.90;99.90;;;;;;5041633;28;20467;-84
2021/05/15 05:11:24;;;;;;;3.40;3.07;;;16.60;99.90;;;;;;5040339;28;21000;-82
2021/05/15 05:13:50;;;;;;;2.80;2.47;;;16.10;99.90;;;;;;5040322;28;20473;-84
2021/05/15 05:16:17;;;;;;;3.30;2.57;;;16.50;99.90;;;;;;5041106;28;20758;-84
2021/05/15 05:18:43;;;;;;;2.80;2.33;;;17.60;99.90;;;;;;5041875;28;20423;-83
2021/05/15 05:21:10;;;;;;;2.53;2.33;;;18.40;99.90;;;;;;5042580;28;20445;-84
2021/05/15 05:23:37;;;;;;;5.57;2.67;;;17.60;99.90;;;;;;5042251;28;20465;-83
2021/05/15 05:26:03;;;;;;;3.57;3.27;;;16.30;99.90;;;;;;5041231;28;20426;-84
2021/05/15 05:28:34;;;;;;;4.10;3.43;;;14.90;99.90;;;;;;5042495;28;20423;-84
2021/05/15 05:31:03;;;;;;;5.40;3.80;;;14.30;99.90;;;;;;5042093;28;20450;-83
2021/05/15 05:33:30;;;;;;;4.77;3.43;;;13.80;99.90;;;;;;5045478;28;20510;-83
2021/05/15 05:35:56;;;;;;;3.50;2.80;;;13.70;99.90;;;;;;5047999;28;20406;-83
2021/05/15 05:38:24;;;;;;;3.93;3.53;;;13.70;99.90;;;;;;5046502;28;20758;-83
2021/05/15 05:40:50;;;;;;;5.87;3.80;;;13.90;99.90;;;;;;5047120;28;20387;-84
2021/05/15 05:43:17;;;;;;;4.20;3.40;;;14.00;99.90;;;;;;5046851;28;20426;-83
2021/05/15 05:45:43;;;;;;;4.17;3.77;;;14.10;99.90;;;;;;5046763;28;20416;-83
2021/05/15 05:48:09;;;;;;;7.93;3.37;;;14.10;99.90;;;;;;5048330;28;20391;-85
2021/05/15 05:50:36;;;;;;;4.53;3.30;;;14.10;99.90;;;;;;5047813;28;20446;-81
2021/05/15 05:53:03;;;;;;;6.37;4.07;;;14.00;99.90;;;;;;5048483;28;20452;-84
2021/05/15 05:55:30;;;;;;;6.97;4.30;;;13.90;99.90;;;;;;5046858;28;20489;-83
2021/05/15 05:57:57;;;;;;;6.87;4.43;;;13.90;99.90;;;;;;5047149;28;20431;-84
2021/05/15 06:00:23;;;;;;;7.13;5.30;;;13.80;99.90;;;;;;5047443;28;20768;-84
2021/05/15 06:02:50;;;;;;;6.57;4.93;;;13.80;99.90;;;;;;5049916;28;20419;-83
2021/05/15 06:05:16;;;;;;;4.33;3.93;;;13.90;99.90;;;;;;5048876;28;20391;-84
2021/05/15 06:07:43;;;;;;;7.43;5.63;;;13.80;99.90;;;;;;5046988;28;20439;-83
2021/05/15 06:10:10;;;;;;;7.40;5.83;;;13.90;99.90;;;;;;5044712;28;20445;-82
2021/05/15 06:12:37;;;;;;;6.77;5.90;;;13.70;99.90;;;;;;5043577;28;20494;-82
2021/05/15 06:15:05;;;;;;;6.50;5.83;;;13.90;99.90;;;;;;5044660;28;20474;-83
2021/05/15 06:17:31;;;;;;;9.13;5.57;;;14.20;99.90;;;;;;5044675;28;20406;-83
2021/05/15 06:19:58;;;;;;;8.20;5.00;;;14.40;99.90;;;;;;5045551;28;20509;-83
2021/05/15 06:22:24;;;;;;;6.10;5.50;;;14.70;99.90;;;;;;5043999;28;20921;-83
2021/05/15 06:24:51;;;;;;;6.90;6.20;;;15.00;99.90;;;;;;5043050;28;20444;-82
2021/05/15 06:27:17;;;;;;;6.30;4.50;;;15.00;99.90;;;;;;5042473;28;20537;-84
2021/05/15 06:29:44;;;;;;;6.33;5.27;;;14.90;99.90;;;;;;5043904;28;20468;-83
2021/05/15 06:32:11;;;;;;;6.30;5.20;;;15.00;99.90;;;;;;5043644;28;20427;-85
2021/05/15 06:34:37;;;;;;;8.30;4.80;;;15.30;99.90;;;;;;5047084;28;20416;-82
2021/05/15 06:37:04;;;;;;;8.03;4.97;;;15.20;99.90;;;;;;5055814;28;20428;-84
2021/05/15 06:39:30;;;;;;;6.77;4.97;;;15.10;99.90;;;;;;5050173;28;20464;-84
2021/05/15 06:41:57;;;;;;;6.40;4.87;;;15.30;99.90;;;;;;5041911;28;20446;-81
2021/05/15 06:44:23;;;;;;;6.23;5.50;;;15.40;99.90;;;;;;5041762;28;20487;-83
2021/05/15 06:46:50;;;;;;;7.27;4.93;;;15.70;99.90;;;;;;5034996;28;20974;-82
2021/05/15 06:49:17;;;;;;;9.20;6.07;;;15.70;99.90;;;;;;5022303;28;20511;-82
2021/05/15 06:51:43;;;;;;;7.67;5.23;;;15.90;99.90;;;;;;5023358;28;20903;-83
2021/05/15 06:54:10;;;;;;;6.00;5.37;;;16.00;99.90;;;;;;5023498;28;20457;-82
2021/05/15 06:56:36;;;;;;;9.53;6.10;;;16.00;99.90;;;;;;5023452;28;20400;-83
2021/05/15 06:59:03;;;;;;;5.83;4.73;;;15.90;99.90;;;;;;5023666;28;20495;-82
2021/05/15 07:01:30;;;;;;;6.57;5.67;;;16.10;99.90;;;;;;5023736;28;20421;-83
2021/05/15 07:03:57;;;;;;;5.63;5.10;;;16.20;99.90;;;;;;5022010;28;20478;-83
2021/05/15 07:06:24;;;;;;;8.77;5.60;;;16.30;99.90;;;;;;5022583;28;20426;-83
2021/05/15 07:08:51;;;;;;;6.63;5.80;;;16.30;99.90;;;;;;5041166;28;20440;-82
2021/05/15 07:11:17;;;;;;;6.67;5.30;;;16.20;99.90;;;;;;5048548;28;20402;-82
2021/05/15 07:13:44;;;;;;;7.40;4.97;;;16.40;99.90;;;;;;5045979;28;20431;-82
2021/05/15 07:16:11;;;;;;;8.83;7.93;;;16.40;99.90;;;;;;5043327;28;20483;-83
2021/05/15 07:18:37;;;;;;;6.37;5.23;;;16.80;99.90;;;;;;5044189;28;20437;-83
2021/05/15 07:21:05;;;;;;;4.33;3.73;;;17.10;99.90;;;;;;5043793;28;20402;-83
2021/05/15 07:23:31;;;;;;;7.83;5.30;;;17.10;99.90;;;;;;5050313;28;20492;-84
2021/05/15 07:25:58;;;;;;;8.90;4.67;;;17.10;99.90;;;;;;5053138;28;20420;-83
2021/05/15 07:28:24;;;;;;;6.70;6.10;;;16.90;99.90;;;;;;5049366;28;20455;-83
2021/05/15 07:30:51;;;;;;;5.37;4.80;;;16.80;99.90;;;;;;5045869;28;20450;-84
2021/05/15 07:33:17;;;;;;;5.37;4.10;;;16.80;99.90;;;;;;5044511;28;20426;-85
2021/05/15 07:35:44;;;;;;;5.17;4.67;;;16.80;99.90;;;;;;5047611;28;20471;-83
2021/05/15 07:38:11;;;;;;;5.00;4.50;;;16.80;99.90;;;;;;5046158;28;20507;-81
2021/05/15 07:40:37;;;;;;;6.30;4.30;;;16.70;99.90;;;;;;5050351;28;20436;-84
2021/05/15 07:43:04;;;;;;;5.87;4.53;;;16.80;99.90;;;;;;5044080;28;20456;-84
2021/05/15 07:45:31;;;;;;;4.70;4.30;;;16.80;99.90;;;;;;5042848;28;20430;-83
2021/05/15 07:47:59;;;;;;;5.33;4.57;;;16.90;99.90;;;;;;5026214;28;20480;-84
2021/05/15 07:50:27;;;;;;;4.17;3.77;;;17.00;99.90;;;;;;5030164;28;20480;-84
2021/05/15 07:52:54;;;;;;;4.93;3.97;;;17.00;99.90;;;;;;5034495;28;20439;-84
2021/05/15 07:55:21;;;;;;;5.40;4.90;;;17.00;99.90;;;;;;5038105;28;20427;-81
2021/05/15 07:57:48;;;;;;;5.37;4.17;;;17.00;99.90;;;;;;5038186;28;20399;-83
2021/05/15 08:00:15;;;;;;;6.53;4.80;;;16.80;99.90;;;;;;5038777;28;20471;-83
2021/05/15 08:02:43;;;;;;;7.90;5.20;;;16.80;99.90;;;;;;5038415;28;20448;-85
2021/05/15 08:05:10;;;;;;;7.17;5.70;;;16.80;99.90;;;;;;5036006;28;20415;-82
2021/05/15 08:07:37;;;;;;;6.73;6.10;;;16.80;99.90;;;;;;5037884;28;20415;-82
2021/05/15 08:10:05;;;;;;;7.23;6.50;;;16.70;99.90;;;;;;5037397;28;20431;-82
2021/05/15 08:12:34;;;;;;;6.50;5.67;;;16.70;99.90;;;;;;5035727;28;20446;-85
2021/05/15 08:15:01;;;;;;;6.63;5.93;;;17.00;99.90;;;;;;5029974;28;20431;-85
2021/05/15 08:17:27;;;;;;;6.87;6.17;;;17.00;99.90;;;;;;5025819;28;20400;-86
2021/05/15 08:19:54;;;;;;;7.47;6.13;;;17.10;99.90;;;;;;5030073;28;20508;-85
2021/05/15 08:22:21;;;;;;;6.27;5.67;;;17.40;99.90;;;;;;5035047;28;20460;-86
2021/05/15 08:24:47;;;;;;;6.93;5.97;;;17.40;99.90;;;;;;5029060;28;20449;-87
2021/05/15 08:27:14;;;;;;;8.63;6.20;;;17.40;99.90;;;;;;5026641;28;20423;-85
2021/05/15 08:29:41;;;;;;;6.37;5.47;;;17.40;99.90;;;;;;5025771;28;20427;-85
2021/05/15 08:32:08;;;;;;;5.67;5.17;;;17.40;99.90;;;;;;5023627;28;20441;-85
2021/05/15 08:34:34;;;;;;;6.40;5.40;;;17.60;99.90;;;;;;5021074;28;20419;-85
2021/05/15 08:37:04;;;;;;;8.27;6.10;;;17.70;99.90;;;;;;5017233;28;20406;-85
2021/05/15 08:39:30;;;;;;;6.93;5.60;;;17.70;99.90;;;;;;5017023;28;20418;-85
2021/05/15 08:41:57;;;;;;;6.80;4.87;;;17.80;99.90;;;;;;5015263;28;20410;-87
2021/05/15 08:44:24;;;;;;;6.73;5.97;;;17.80;99.90;;;;;;5015332;28;20527;-87
2021/05/15 08:46:52;;;;;;;6.03;5.30;;;17.90;99.90;;;;;;5015019;28;20971;-86
2021/05/15 08:49:23;;;;;;;5.07;4.03;;;18.00;99.90;;;;;;5015274;28;20540;-85
2021/05/15 08:51:52;;;;;;;7.73;5.47;;;18.10;99.90;;;;;;5017489;28;20437;-85
2021/05/15 08:54:22;;;;;;;5.23;4.73;;;18.30;99.90;;;;;;5016833;28;20430;-86
2021/05/15 08:56:49;;;;;;;7.60;5.07;;;18.50;99.90;;;;;;5015861;28;20391;-86
2021/05/15 08:59:15;;;;;;;8.40;5.83;;;18.60;99.90;;;;;;5016043;28;20387;-87
2021/05/15 09:01:43;;;;;;;7.67;4.90;;;18.50;99.90;;;;;;5016439;28;20416;-86
2021/05/15 09:04:10;;;;;;;6.10;5.50;;;18.30;99.90;;;;;;5019034;28;20427;-85
2021/05/15 09:06:40;;;;;;;6.43;5.80;;;18.40;99.90;;;;;;5017524;28;20917;-85
2021/05/15 09:09:08;;;;;;;5.50;4.97;;;18.70;99.90;;;;;;5017382;28;20407;-87
2021/05/15 09:11:36;;;;;;;9.03;5.20;;;18.90;99.90;;;;;;5016635;28;20536;-87
2021/05/15 09:14:04;;;;;;;5.70;5.20;;;19.00;99.90;;;;;;5017380;28;20452;-85
2021/05/15 09:16:32;;;;;;;4.30;3.80;;;19.00;99.90;;;;;;5018706;28;20848;-86
2021/05/15 09:19:06;;;;;;;6.17;5.53;;;19.10;99.90;;;;;;5016928;28;20416;-87
2021/05/15 09:21:34;;;;;;;6.23;5.63;;;19.10;99.90;;;;;;5020617;28;20376;-86
2021/05/15 09:24:06;;;;;;;5.70;5.17;;;19.20;99.90;;;;;;5018019;28;20953;-87
2021/05/15 09:26:35;;;;;;;7.27;6.57;;;19.60;99.90;;;;;;5023165;28;20437;-86
2021/05/15 09:29:03;;;;;;;6.10;5.00;;;19.80;99.90;;;;;;5022991;28;20419;-88
2021/05/15 09:31:38;;;;;;;6.10;5.60;;;20.00;99.90;;;;;;5022023;28;20487;-85
2021/05/15 09:34:07;;;;;;;11.03;6.60;;;20.10;99.90;;;;;;5020233;28;20974;-85
2021/05/15 09:36:37;;;;;;;6.60;5.80;;;20.20;99.90;;;;;;5019332;28;20819;-86
2021/05/15 09:39:08;;;;;;;6.90;6.20;;;20.30;99.90;;;;;;5020706;28;20892;-86
2021/05/15 09:41:39;;;;;;;6.50;4.90;;;20.50;99.90;;;;;;5020733;28;20495;-85
2021/05/15 09:44:09;;;;;;;5.90;4.80;;;20.30;99.90;;;;;;5026663;28;20972;-86
2021/05/15 09:46:39;;;;;;;3.70;3.40;;;20.20;99.90;;;;;;5026739;28;20453;-86
2021/05/15 09:49:08;;;;;;;5.33;3.77;;;20.10;99.90;;;;;;5016750;28;20400;-87
2021/05/15 09:51:38;;;;;;;6.17;5.23;;;20.30;99.90;;;;;;5016799;28;20437;-86
2021/05/15 09:54:16;;;;;;;6.10;4.50;;;20.50;99.90;;;;;;5022521;28;20487;-85
2021/05/15 09:56:55;;;;;;;5.90;5.30;;;20.30;99.90;;;;;;5018306;28;20519;-86
2021/05/15 09:59:28;;;;;;;6.90;3.90;;;20.20;99.90;;;;;;5018461;28;20460;-86
2021/05/15 10:01:57;;;;;;;4.40;4.00;;;19.90;99.90;;;;;;5015881;28;20871;-85
2021/05/15 10:04:26;;;;;;;5.13;4.40;;;19.90;99.90;;;;;;5016738;28;20457;-85
2021/05/15 10:06:56;;;;;;;6.40;4.80;;;19.90;99.90;;;;;;5017045;28;20437;-85
2021/05/15 10:09:26;;;;;;;4.17;3.77;;;20.10;99.90;;;;;;5016282;28;20449;-85
2021/05/15 10:11:54;;;;;;;5.00;4.60;;;20.60;99.90;;;;;;5015564;28;20436;-85
2021/05/15 10:14:22;;;;;;;5.43;4.93;;;21.10;99.90;;;;;;5016705;28;20464;-86
2021/05/15 10:16:50;;;;;;;5.50;5.00;;;20.80;99.90;;;;;;5017795;28;20413;-87
2021/05/15 10:19:18;;;;;;;3.40;3.10;;;20.20;99.90;;;;;;5017380;28;20496;-87
2021/05/15 10:21:47;;;;;;;3.40;3.10;;;20.10;99.90;;;;;;5021328;28;20460;-85
2021/05/15 10:24:23;;;;;;;3.63;3.33;;;20.10;99.90;;;;;;5021612;28;20448;-86
2021/05/15 10:26:58;;;;;;;3.10;2.80;;;19.70;99.90;;;;;;5021428;28;20795;-86
2021/05/15 10:29:39;;;;;;;5.07;4.67;;;19.70;99.90;;;;;;5021371;28;20464;-85
2021/05/15 10:32:10;;;;;;;9.37;4.40;;;19.60;99.90;;;;;;5021791;28;20437;-85
2021/05/15 10:34:37;;;;;;;4.43;4.00;;;19.60;99.90;;;;;;5022177;28;20433;-85
2021/05/15 10:37:15;;;;;;;4.13;3.73;;;19.70;99.90;;;;;;5022673;28;20429;-85
2021/05/15 10:40:37;;;;;;;3.50;3.20;;;19.60;99.90;;;;;;5024862;28;20414;-86
2021/05/15 10:43:55;;;;;;;4.30;3.53;;;19.70;99.90;;;;;;5019895;28;20442;-86
2021/05/15 10:46:26;;;;;;;7.33;3.50;;;20.00;99.90;;;;;;5024751;28;20410;-85
2021/05/15 10:48:56;;;;;;;4.00;3.60;;;20.20;99.90;;;;;;5026828;28;20940;-86
2021/05/15 10:51:36;;;;;;;4.80;3.87;;;20.20;99.90;;;;;;5026790;28;20486;-83
2021/05/15 10:54:05;;;;;;;3.90;3.50;;;20.50;99.90;;;;;;5022247;28;20543;-85
2021/05/15 10:56:48;;;;;;;4.20;3.80;;;20.70;99.90;;;;;;5022152;28;20409;-86
2021/05/15 10:59:22;;;;;;;5.10;3.40;;;20.80;99.90;;;;;;5022937;28;20908;-87
2021/05/15 11:02:18;;;;;;;4.30;3.90;;;20.60;99.90;;;;;;5021711;28;20571;-87
2021/05/15 11:04:54;;;;;;;5.13;3.40;;;20.70;99.90;;;;;;5021222;28;20416;-85
2021/05/15 11:07:31;;;;;;;3.90;3.60;;;20.70;99.90;;;;;;5020703;28;20515;-86
2021/05/15 11:10:05;;;;;;;3.57;3.20;;;20.60;99.90;;;;;;5021191;28;20405;-86
2021/05/15 11:12:40;;;;;;;2.87;2.60;;;20.80;99.90;;;;;;5021169;28;20452;-86
2021/05/15 11:15:11;;;;;;;1.57;1.30;;;20.80;99.90;;;;;;5019285;28;20449;-85
2021/05/15 11:18:01;;;;;;;1.67;1.37;;;20.70;99.90;;;;;;5022285;28;20911;-87
2021/05/15 11:20:41;;;;;;;4.40;1.57;;;20.50;99.90;;;;;;5025940;28;20473;-85
2021/05/15 11:23:12;;;;;;;2.10;1.50;;;20.70;99.90;;;;;;5024637;28;20822;-86
2021/05/15 11:25:52;;;;;;;1.73;1.13;;;20.60;99.90;;;;;;5021249;28;20441;-85
2021/05/15 11:28:24;;;;;;;1.53;1.43;;;20.30;99.90;;;;;;5020582;28;20511;-84
2021/05/15 11:30:53;;;;;;;1.60;1.10;;;20.10;99.90;;;;;;5020650;28;20405;-85
2021/05/15 11:33:29;;;;;;;1.53;1.17;;;19.90;99.90;;;;;;5019556;28;20465;-85
2021/05/15 11:36:17;;;;;;;3.27;1.40;;;19.30;99.90;;;;;;5023521;28;20477;-84
2021/05/15 11:38:49;;;;;;;1.80;1.50;;;19.00;99.90;;;;;;5022088;28;20448;-85
2021/05/15 11:41:18;;;;;;;2.50;1.07;;;18.90;99.90;;;;;;5024618;28;20509;-85
2021/05/15 11:43:50;;;;;;;1.40;1.00;;;18.70;99.90;;;;;;5027921;28;20484;-86
2021/05/15 11:46:25;;;;;;;1.93;1.43;;;18.70;99.90;;;;;;5037844;28;20433;-86
2021/05/15 11:48:57;;;;;;;1.53;0.83;;;18.80;99.90;;;;;;5040636;28;20432;-87
2021/05/15 11:51:26;;;;;;;1.00;0.70;;;18.40;99.90;;;;;;5037932;28;20458;-89
2021/05/15 11:57:27;;;;;;;1.20;0.70;;;18.00;99.90;;;;;;5031708;28;20419;-86
2021/05/15 12:00:14;;;;;;;1.40;0.80;;;17.50;99.90;;;;;;5037501;28;21490;-86
2021/05/15 12:02:48;;;;;;;1.77;0.80;;;17.30;99.90;;;;;;5048062;28;20447;-83
2021/05/15 12:05:19;;;;;;;0.90;0.60;;;17.50;99.90;;;;;;5054055;28;20424;-84
2021/05/15 12:07:47;;;;;;;1.00;0.60;;;17.70;99.90;;;;;;5052158;28;20514;-84
2021/05/15 12:10:20;;;;;;;1.10;0.80;;;18.10;99.90;;;;;;5049694;28;20512;-83
2021/05/15 12:12:56;;;;;;;1.47;0.70;;;18.10;99.90;;;;;;5044822;28;20476;-84
2021/05/15 12:15:25;;;;;;;1.30;0.90;;;18.70;99.90;;;;;;5057608;28;20418;-80
2021/05/15 12:18:13;;;;;;;1.20;0.77;;;19.50;99.90;;;;;;5057227;28;20523;-85
2021/05/15 12:29:30;;;;;;;1.67;1.10;;;20.50;99.90;;;;;;5023111;22;20486;-70
2021/05/15 12:31:58;;;;;;;1.10;0.70;;;20.40;99.90;;;;;;5034847;28;20478;-70
2021/05/15 12:34:26;;;;;;;1.40;0.70;;;19.90;99.90;;;;;;5011135;28;20417;-70
2021/05/15 12:36:54;;;;;;;1.83;0.80;;;19.90;99.90;;;;;;5010894;28;20429;-71
2021/05/15 12:39:33;;;;;;;3.27;0.90;;;20.20;99.90;;;;;;5010436;28;20463;-71
2021/05/15 12:42:02;;;;;;;1.57;0.90;;;20.40;99.90;;;;;;5010766;28;20476;-72
2021/05/15 12:44:38;;;;;;;1.30;0.80;;;20.50;99.90;;;;;;5010627;28;20425;-71
2021/05/15 12:47:07;;;;;;;1.20;1.00;;;20.60;99.90;;;;;;5010413;28;20456;-70
2021/05/15 12:49:37;;;;;;;1.73;1.00;;;20.80;99.90;;;;;;5010434;28;20938;-71
2021/05/15 12:52:18;;;;;;;2.10;0.73;;;20.90;99.90;;;;;;5022012;28;20440;-71
2021/05/15 12:54:47;;;;;;;4.13;0.90;;;21.20;99.90;;;;;;5025569;28;20515;-72
2021/05/15 12:57:17;;;;;;;1.17;0.80;;;21.20;99.90;;;;;;5030619;28;20474;-71
2021/05/15 12:59:46;;;;;;;1.47;0.60;;;21.30;99.90;;;;;;5030573;28;20420;-69
2021/05/15 13:02:16;;;;;;;1.10;0.80;;;21.30;99.90;;;;;;5029978;28;20472;-70
2021/05/15 13:04:46;;;;;;;1.90;0.90;;;21.30;99.90;;;;;;5030770;28;20775;-72
2021/05/15 13:07:25;;;;;;;1.47;0.87;;;21.20;99.90;;;;;;5030383;28;20430;-69
2021/05/15 13:09:59;;;;;;;1.20;0.90;;;21.40;99.90;;;;;;5030439;28;20420;-69
2021/05/15 13:12:28;;;;;;;1.70;0.90;;;21.50;99.90;;;;;;5029315;28;20486;-71